createdAt,value
2023-04-03T00:00:33.711Z,5.88
2023-04-03T00:03:00.587Z,4.95
2023-04-03T00:05:27.449Z,5.28
2023-04-03T00:07:54.195Z,5.32
2023-04-03T00:10:20.908Z,5.13
2023-04-03T00:12:47.577Z,5.78
2023-04-03T00:15:14.641Z,5.38
2023-04-03T00:17:41.457Z,5.28
2023-04-03T00:20:08.818Z,4.43
2023-04-03T00:22:35.540Z,5.93
2023-04-03T00:25:02.274Z,5.43
2023-04-03T00:27:29.150Z,3.88
2023-04-03T00:29:56.087Z,5.28
2023-04-03T00:32:22.755Z,4.90
2023-04-03T00:34:49.569Z,6.00
2023-04-03T00:37:16.279Z,5.05
2023-04-03T00:39:42.944Z,5.00
2023-04-03T00:42:10.293Z,4.75
2023-04-03T00:44:36.888Z,5.25
2023-04-03T00:47:06.406Z,5.05
2023-04-03T00:49:33.282Z,3.72
2023-04-03T00:52:00.461Z,4.43
2023-04-03T00:54:27.725Z,4.57
2023-04-03T00:56:57.183Z,4.65
2023-04-03T00:59:33.840Z,4.32
2023-04-03T01:02:01.601Z,4.90
2023-04-03T01:04:33.331Z,4.15
2023-04-03T01:09:30.696Z,4.15
2023-04-03T01:12:24.381Z,4.75
2023-04-03T01:14:54.029Z,4.10
2023-04-03T01:17:34.847Z,4.50
2023-04-03T01:20:36.937Z,3.95
2023-04-03T01:23:10.000Z,4.10
2023-04-03T01:25:49.071Z,4.00
2023-04-03T01:28:31.526Z,4.07
2023-04-03T01:31:04.215Z,4.45
2023-04-03T01:33:33.921Z,4.10
2023-04-03T01:36:01.055Z,4.03
2023-04-03T01:38:28.694Z,4.13
2023-04-03T01:40:55.627Z,4.13
2023-04-03T01:43:22.382Z,3.85
2023-04-03T01:45:50.973Z,3.60
2023-04-03T01:48:18.011Z,3.80
2023-04-03T01:50:44.708Z,4.05
2023-04-03T01:53:11.532Z,4.45
2023-04-03T01:55:38.201Z,4.18
2023-04-03T01:58:05.078Z,4.38
2023-04-03T02:00:31.817Z,4.53
2023-04-03T02:02:58.666Z,3.85
2023-04-03T02:05:26.576Z,4.50
2023-04-03T02:07:53.342Z,4.00
2023-04-03T02:10:20.092Z,4.53
2023-04-03T02:12:46.956Z,5.15
2023-04-03T02:15:13.910Z,4.60
2023-04-03T02:17:40.837Z,5.68
2023-04-03T02:20:08.274Z,5.10
2023-04-03T02:22:35.051Z,5.72
2023-04-03T02:25:01.985Z,5.70
2023-04-03T02:27:29.030Z,5.05
2023-04-03T02:29:55.799Z,5.15
2023-04-03T02:32:22.520Z,5.60
2023-04-03T02:34:49.296Z,6.05
2023-04-03T02:37:16.345Z,6.72
2023-04-03T02:39:45.384Z,6.28
2023-04-03T02:42:12.323Z,6.57
2023-04-03T02:44:39.971Z,5.95
2023-04-03T02:47:06.678Z,7.03
2023-04-03T02:49:33.642Z,5.63
2023-04-03T02:52:00.333Z,6.25
2023-04-03T02:54:29.692Z,5.55
2023-04-03T02:56:59.179Z,5.65
2023-04-03T02:59:26.103Z,5.53
2023-04-03T03:01:53.233Z,5.78
2023-04-03T03:04:20.095Z,6.10
2023-04-03T03:06:47.894Z,6.13
2023-04-03T03:09:15.093Z,5.80
2023-04-03T03:11:43.144Z,6.03
2023-04-03T03:14:10.002Z,5.53
2023-04-03T03:16:36.675Z,7.38
2023-04-03T03:19:03.510Z,6.72
2023-04-03T03:21:30.745Z,5.13
2023-04-03T03:23:57.466Z,5.60
2023-04-03T03:26:24.821Z,6.45
2023-04-03T03:28:51.573Z,5.95
2023-04-03T03:31:18.383Z,6.13
2023-04-03T03:33:45.308Z,7.20
2023-04-03T03:36:12.021Z,6.90
2023-04-03T03:38:38.993Z,6.38
2023-04-03T03:41:06.511Z,6.05
2023-04-03T03:43:34.645Z,6.15
2023-04-03T03:46:01.580Z,6.40
2023-04-03T03:48:28.705Z,6.05
2023-04-03T03:50:56.378Z,5.68
2023-04-03T03:53:26.930Z,6.13
2023-04-03T03:55:57.492Z,6.20
2023-04-03T03:58:26.266Z,6.28
2023-04-03T04:00:53.108Z,6.50
2023-04-03T04:03:20.082Z,6.15
2023-04-03T04:05:48.839Z,7.18
2023-04-03T04:08:16.049Z,5.13
2023-04-03T04:10:44.538Z,6.00
2023-04-03T04:13:13.080Z,5.75
2023-04-03T04:15:40.086Z,7.22
2023-04-03T04:18:07.374Z,7.03
2023-04-03T04:20:34.430Z,6.18
2023-04-03T04:23:01.584Z,5.95
2023-04-03T04:25:29.389Z,6.35
2023-04-03T04:27:56.231Z,6.82
2023-04-03T04:30:22.903Z,6.03
2023-04-03T04:32:51.090Z,6.60
2023-04-03T04:35:18.597Z,5.85
2023-04-03T04:37:48.141Z,6.57
2023-04-03T04:40:15.668Z,6.75
2023-04-03T04:42:42.574Z,6.55
2023-04-03T04:45:10.417Z,6.38
2023-04-03T04:47:39.868Z,6.72
2023-04-03T04:50:07.414Z,7.05
2023-04-03T04:52:34.345Z,6.40
2023-04-03T04:55:01.354Z,6.80
2023-04-03T04:57:28.466Z,6.45
2023-04-03T04:59:57.870Z,6.15
2023-04-03T05:02:24.622Z,6.97
2023-04-03T05:04:53.070Z,5.05
2023-04-03T05:07:24.353Z,6.45
2023-04-03T05:09:51.106Z,6.22
2023-04-03T05:12:18.754Z,5.97
2023-04-03T05:14:52.402Z,6.22
2023-04-03T05:17:19.144Z,6.00
2023-04-03T05:19:50.331Z,5.75
2023-04-03T05:22:20.248Z,6.82
2023-04-03T05:24:46.912Z,7.28
2023-04-03T05:27:13.623Z,6.15
2023-04-03T05:29:45.313Z,5.85
2023-04-03T05:32:15.884Z,5.68
2023-04-03T05:34:42.980Z,6.57
2023-04-03T05:37:09.732Z,5.90
2023-04-03T05:39:36.649Z,6.25
2023-04-03T05:42:05.569Z,5.25
2023-04-03T05:44:32.429Z,5.80
2023-04-03T05:46:59.362Z,5.80
2023-04-03T05:49:26.070Z,5.75
2023-04-03T05:51:53.045Z,6.20
2023-04-03T05:54:29.025Z,5.50
2023-04-03T05:57:02.899Z,4.82
2023-04-03T05:59:30.047Z,5.75
2023-04-03T06:01:58.646Z,6.03
2023-04-03T06:04:25.804Z,6.28
2023-04-03T06:06:54.110Z,5.65
2023-04-03T06:09:23.139Z,6.53
2023-04-03T06:11:50.030Z,5.35
2023-04-03T06:14:17.483Z,5.80
2023-04-03T06:16:44.718Z,5.32
2023-04-03T06:19:13.182Z,5.68
2023-04-03T06:21:44.917Z,5.40
2023-04-03T06:24:16.152Z,6.15
2023-04-03T06:26:43.626Z,5.03
2023-04-03T06:29:10.308Z,5.05
2023-04-03T06:31:39.859Z,5.72
2023-04-03T06:34:09.633Z,5.88
2023-04-03T06:36:36.768Z,5.03
2023-04-03T06:39:04.571Z,4.88
2023-04-03T06:41:31.567Z,5.35
2023-04-03T06:43:59.071Z,4.85
2023-04-03T06:46:27.940Z,5.30
2023-04-03T06:48:55.002Z,4.88
2023-04-03T06:51:30.048Z,5.00
2023-04-03T06:53:59.336Z,4.07
2023-04-03T06:56:27.429Z,4.13
2023-04-03T06:58:58.065Z,4.75
2023-04-03T07:01:27.516Z,4.57
2023-04-03T07:03:54.998Z,3.58
2023-04-03T07:06:22.082Z,3.83
2023-04-03T07:08:51.459Z,4.10
2023-04-03T07:11:18.166Z,4.57
2023-04-03T07:13:44.951Z,4.38
2023-04-03T07:16:12.072Z,4.10
2023-04-03T07:18:38.863Z,5.22
2023-04-03T07:21:05.885Z,4.95
2023-04-03T07:23:32.980Z,4.10
2023-04-03T07:26:00.149Z,3.70
2023-04-03T07:28:27.081Z,4.07
2023-04-03T07:31:00.770Z,4.00
2023-04-03T07:33:27.551Z,4.43
2023-04-03T07:35:54.383Z,4.20
2023-04-03T07:38:21.136Z,3.70
2023-04-03T07:40:53.527Z,4.38
2023-04-03T07:43:21.791Z,3.70
2023-04-03T07:45:51.768Z,3.78
2023-04-03T07:48:24.736Z,4.38
2023-04-03T07:50:52.325Z,4.00
2023-04-03T07:53:19.297Z,4.13
2023-04-03T07:55:48.449Z,3.28
2023-04-03T07:58:18.134Z,2.88
2023-04-03T08:00:45.946Z,2.55
2023-04-03T08:03:14.002Z,3.10
2023-04-03T08:05:46.199Z,2.60
2023-04-03T08:08:15.478Z,3.35
2023-04-03T08:10:42.378Z,2.92
2023-04-03T08:13:10.413Z,2.90
2023-04-03T08:15:38.050Z,2.95
2023-04-03T08:18:05.285Z,3.85
2023-04-03T08:20:32.328Z,3.15
2023-04-03T08:22:59.019Z,4.68
2023-04-03T08:25:25.808Z,2.80
2023-04-03T08:27:52.769Z,3.17
2023-04-03T08:30:19.571Z,2.70
2023-04-03T08:32:46.342Z,2.67
2023-04-03T08:35:13.246Z,2.10
2023-04-03T08:37:41.459Z,2.00
2023-04-03T08:40:13.850Z,1.88
2023-04-03T08:42:58.876Z,2.17
2023-04-03T08:45:38.396Z,2.20
2023-04-03T08:48:16.527Z,2.55
2023-04-03T08:50:53.091Z,2.30
2023-04-03T08:53:22.937Z,2.33
2023-04-03T08:55:54.428Z,2.05
2023-04-03T08:58:25.092Z,2.05
2023-04-03T09:01:21.217Z,1.90
2023-04-03T09:03:48.194Z,2.20
2023-04-03T09:06:21.452Z,1.83
2023-04-03T09:08:58.076Z,1.58
2023-04-03T09:11:39.874Z,2.05
2023-04-03T09:14:19.465Z,2.60
2023-04-03T09:16:54.606Z,1.92
2023-04-03T09:19:33.853Z,2.05
2023-04-03T09:22:27.592Z,2.00
2023-04-03T09:25:34.914Z,1.70
2023-04-03T09:28:02.807Z,1.90
2023-04-03T09:30:30.008Z,1.92
2023-04-03T09:32:58.298Z,1.80
2023-04-03T09:35:44.864Z,1.75
2023-04-03T09:38:15.152Z,1.65
2023-04-03T09:40:52.483Z,1.95
2023-04-03T09:43:25.468Z,1.90
2023-04-03T09:45:53.478Z,1.67
2023-04-03T09:48:26.326Z,2.00
2023-04-03T09:50:56.565Z,1.92
2023-04-03T09:53:34.989Z,1.70
2023-04-03T09:56:04.358Z,1.60
2023-04-03T09:58:50.370Z,2.20
2023-04-03T10:01:36.368Z,1.83
2023-04-03T10:04:10.903Z,1.88
2023-04-03T10:06:51.043Z,1.73
2023-04-03T10:09:31.056Z,1.30
2023-04-03T10:12:07.896Z,1.63
2023-04-03T10:14:38.822Z,2.15
2023-04-03T10:17:19.300Z,1.77
2023-04-03T10:19:52.788Z,1.70
2023-04-03T10:22:28.978Z,1.73
2023-04-03T10:25:02.829Z,1.75
2023-04-03T10:27:47.642Z,2.05
2023-04-03T10:30:36.846Z,1.92
2023-04-03T10:33:21.968Z,2.28
2023-04-03T10:35:54.555Z,2.08
2023-04-03T10:38:24.663Z,1.60
2023-04-03T10:41:26.136Z,2.10
2023-04-03T10:44:08.025Z,1.80
2023-04-03T10:49:39.119Z,1.98
2023-04-03T10:52:35.194Z,2.00
2023-04-03T10:55:11.636Z,2.10
2023-04-03T10:57:39.113Z,2.05
2023-04-03T11:00:15.011Z,1.70
2023-04-03T11:02:57.935Z,2.15
2023-04-03T11:05:44.817Z,1.98
2023-04-03T11:08:34.502Z,1.80
2023-04-03T11:11:07.204Z,1.95
2023-04-03T11:13:41.152Z,1.90
2023-04-03T11:16:09.347Z,2.10
2023-04-03T11:18:46.147Z,1.90
2023-04-03T11:21:20.213Z,1.80
2023-04-03T11:23:49.872Z,2.10
2023-04-03T11:26:19.770Z,2.30
2023-04-03T11:28:47.302Z,2.30
2023-04-03T11:31:35.302Z,1.88
2023-04-03T11:34:16.626Z,2.40
2023-04-03T11:36:56.945Z,1.90
2023-04-03T11:39:29.251Z,1.70
2023-04-03T11:42:06.745Z,2.35
2023-04-03T11:44:40.065Z,2.05
2023-04-03T11:47:12.708Z,2.08
2023-04-03T11:50:01.002Z,2.22
2023-04-03T11:52:43.172Z,2.63
2023-04-03T11:55:22.816Z,1.98
2023-04-03T11:57:58.642Z,2.30
2023-04-03T12:01:03.825Z,1.83
2023-04-03T12:03:54.508Z,1.75
2023-04-03T12:06:41.856Z,1.55
2023-04-03T12:09:36.583Z,1.70
2023-04-03T12:12:30.817Z,2.20
2023-04-03T12:15:19.365Z,3.20
2023-04-03T12:17:46.246Z,1.90
2023-04-03T12:21:07.949Z,2.03
2023-04-03T12:23:37.234Z,1.40
2023-04-03T12:26:22.787Z,1.85
2023-04-03T12:28:52.176Z,1.90
2023-04-03T12:31:19.693Z,2.10
2023-04-03T12:34:44.060Z,2.33
2023-04-03T12:37:16.456Z,2.13
2023-04-03T12:39:48.966Z,1.70
2023-04-03T12:42:32.591Z,1.88
2023-04-03T12:45:10.349Z,2.22
2023-04-03T12:47:39.175Z,1.77
2023-04-03T12:50:20.634Z,1.83
2023-04-03T12:52:55.224Z,1.60
2023-04-03T12:55:22.724Z,1.50
2023-04-03T12:57:49.797Z,1.40
2023-04-03T13:00:23.826Z,1.65
2023-04-03T13:02:50.833Z,1.75
2023-04-03T13:05:20.228Z,1.65
2023-04-03T13:07:53.488Z,1.80
2023-04-03T13:10:20.912Z,1.90
2023-04-03T13:12:50.711Z,1.60
2023-04-03T13:15:25.837Z,1.58
2023-04-03T13:17:54.497Z,1.73
2023-04-03T13:20:24.275Z,1.48
2023-04-03T13:22:56.674Z,1.58
2023-04-03T13:25:27.171Z,2.03
2023-04-03T13:28:03.348Z,1.27
2023-04-03T13:30:40.654Z,1.42
2023-04-03T13:33:23.066Z,1.90
2023-04-03T13:36:02.949Z,1.30
2023-04-03T13:38:34.001Z,1.52
2023-04-03T13:41:22.187Z,1.55
2023-04-03T13:43:49.925Z,1.58
2023-04-03T13:46:16.783Z,1.90
2023-04-03T13:48:46.878Z,2.00
2023-04-03T13:51:13.807Z,1.35
2023-04-03T13:53:51.623Z,2.00
2023-04-03T13:56:26.443Z,2.03
2023-04-03T13:59:21.435Z,1.85
2023-04-03T14:01:56.858Z,1.65
2023-04-03T14:04:23.771Z,1.55
2023-04-03T14:06:50.709Z,1.88
2023-04-03T14:09:19.712Z,1.98
2023-04-03T14:11:48.404Z,1.10
2023-04-03T14:14:24.751Z,1.33
2023-04-03T14:16:55.674Z,1.65
2023-04-03T14:19:28.845Z,1.83
2023-04-03T14:21:56.849Z,2.03
2023-04-03T14:24:24.862Z,2.08
2023-04-03T14:26:54.281Z,1.60
2023-04-03T14:29:22.569Z,1.42
2023-04-03T14:31:55.445Z,1.60
2023-04-03T14:34:27.346Z,1.50
2023-04-03T14:36:54.489Z,1.90
2023-04-03T14:39:21.200Z,1.30
2023-04-03T14:41:48.104Z,1.50
2023-04-03T14:44:14.812Z,1.60
2023-04-03T14:49:18.961Z,1.65
2023-04-03T14:51:45.899Z,1.58
2023-04-03T14:54:22.624Z,1.27
2023-04-03T14:56:49.423Z,1.58
2023-04-03T14:59:18.582Z,1.40
2023-04-03T15:01:45.313Z,1.50
2023-04-03T15:04:15.124Z,2.10
2023-04-03T15:06:42.376Z,1.38
2023-04-03T15:09:28.423Z,1.50
2023-04-03T15:11:56.265Z,1.17
2023-04-03T15:14:35.948Z,2.28
2023-04-03T15:17:14.178Z,1.38
2023-04-03T15:19:41.535Z,1.63
2023-04-03T15:22:09.892Z,1.73
2023-04-03T15:24:36.638Z,1.75
2023-04-03T15:27:03.442Z,1.50
2023-04-03T15:29:30.193Z,1.65
2023-04-03T15:31:57.047Z,1.60
2023-04-03T15:34:23.832Z,1.70
2023-04-03T15:36:53.506Z,1.60
2023-04-03T15:39:21.617Z,2.15
2023-04-03T15:41:48.699Z,2.08
2023-04-03T15:44:18.757Z,1.50
2023-04-03T15:46:46.879Z,1.92
2023-04-03T15:49:14.170Z,1.50
2023-04-03T15:51:41.027Z,1.40
2023-04-03T15:54:07.821Z,1.60
2023-04-03T15:56:34.423Z,1.67
2023-04-03T15:59:01.175Z,1.60
2023-04-03T16:01:28.124Z,1.38
2023-04-03T16:03:55.025Z,1.23
2023-04-03T16:06:21.878Z,1.50
2023-04-03T16:08:50.267Z,1.77
2023-04-03T16:11:16.967Z,1.25
2023-04-03T16:13:44.237Z,1.35
2023-04-03T16:16:11.005Z,1.40
2023-04-03T16:18:37.768Z,1.50
2023-04-03T16:21:04.668Z,1.10
2023-04-03T16:23:31.449Z,1.40
2023-04-03T16:25:58.300Z,2.00
2023-04-03T16:28:25.025Z,3.75
2023-04-03T16:30:52.278Z,1.20
2023-04-03T16:33:22.395Z,1.30
2023-04-03T16:35:49.959Z,1.60
2023-04-03T16:38:16.830Z,1.30
2023-04-03T16:40:44.272Z,1.30
2023-04-03T16:43:11.532Z,1.60
2023-04-03T16:45:38.572Z,1.25
2023-04-03T16:48:05.989Z,1.70
2023-04-03T16:50:33.257Z,1.38
2023-04-03T16:53:00.317Z,1.17
2023-04-03T16:55:27.009Z,1.33
2023-04-03T16:57:55.448Z,2.13
2023-04-03T17:00:22.527Z,1.85
2023-04-03T17:02:49.255Z,1.60
2023-04-03T17:05:15.960Z,1.58
2023-04-03T17:07:42.686Z,1.50
2023-04-03T17:10:09.613Z,1.58
2023-04-03T17:12:36.254Z,1.17
2023-04-03T17:15:03.194Z,1.40
2023-04-03T17:17:30.004Z,1.70
2023-04-03T17:19:56.951Z,1.60
2023-04-03T17:22:23.700Z,1.58
2023-04-03T17:24:50.881Z,1.75
2023-04-03T17:27:17.518Z,1.55
2023-04-03T17:29:44.211Z,1.30
2023-04-03T17:32:10.961Z,1.40
2023-04-03T17:34:37.724Z,1.73
2023-04-03T17:37:04.679Z,1.90
2023-04-03T17:39:31.637Z,1.10
2023-04-03T17:41:58.586Z,1.50
2023-04-03T17:44:25.338Z,1.27
2023-04-03T17:46:52.032Z,1.85
2023-04-03T17:49:20.601Z,1.90
2023-04-03T17:51:47.225Z,1.60
2023-04-03T17:54:14.314Z,1.73
2023-04-03T17:56:47.660Z,1.42
2023-04-03T17:59:16.432Z,1.85
2023-04-03T18:01:46.106Z,1.70
2023-04-03T18:04:13.712Z,1.60
2023-04-03T18:06:44.324Z,1.50
2023-04-03T18:09:23.701Z,2.08
2023-04-03T18:11:52.175Z,1.30
2023-04-03T18:14:22.926Z,2.00
2023-04-03T18:16:49.860Z,1.75
2023-04-03T18:19:23.572Z,1.40
2023-04-03T18:21:57.564Z,1.50
2023-04-03T18:24:26.310Z,1.50
2023-04-03T18:27:00.351Z,1.65
2023-04-03T18:29:30.991Z,1.90
2023-04-03T18:31:59.083Z,1.30
2023-04-03T18:34:25.935Z,1.42
2023-04-03T18:36:52.733Z,1.48
2023-04-03T18:39:19.557Z,1.50
2023-04-03T18:41:47.114Z,1.73
2023-04-03T18:44:19.094Z,1.73
2023-04-03T18:46:46.040Z,1.67
2023-04-03T18:49:13.888Z,1.73
2023-04-03T18:51:40.997Z,1.80
2023-04-03T18:54:10.025Z,1.60
2023-04-03T18:56:37.337Z,1.90
2023-04-03T18:59:04.721Z,1.65
2023-04-03T19:01:32.467Z,1.55
2023-04-03T19:03:59.361Z,1.60
2023-04-03T19:06:26.431Z,1.85
2023-04-03T19:08:53.767Z,1.75
2023-04-03T19:11:20.600Z,1.73
2023-04-03T19:14:04.472Z,1.30
2023-04-03T19:16:34.239Z,2.05
2023-04-03T19:19:01.329Z,1.77
2023-04-03T19:21:28.227Z,1.90
2023-04-03T19:23:58.988Z,1.92
2023-04-03T19:26:27.065Z,1.83
2023-04-03T19:28:53.779Z,1.63
2023-04-03T19:31:21.619Z,2.05
2023-04-03T19:33:48.424Z,1.65
2023-04-03T19:36:15.944Z,1.98
2023-04-03T19:38:42.936Z,1.58
2023-04-03T19:41:17.462Z,1.70
2023-04-03T19:43:45.110Z,2.03
2023-04-03T19:46:12.329Z,2.08
2023-04-03T19:48:39.126Z,2.40
2023-04-03T19:51:06.161Z,1.88
2023-04-03T19:53:33.145Z,2.05
2023-04-03T19:56:01.071Z,1.95
2023-04-03T19:58:30.093Z,1.80
2023-04-03T20:00:58.098Z,1.80
2023-04-03T20:03:25.516Z,1.83
2023-04-03T20:05:52.836Z,1.73
2023-04-03T20:08:19.937Z,1.95
2023-04-03T20:10:46.966Z,2.05
2023-04-03T20:13:14.055Z,1.85
2023-04-03T20:15:42.299Z,2.10
2023-04-03T20:18:19.930Z,1.80
2023-04-03T20:21:16.096Z,1.70
2023-04-03T20:23:42.758Z,1.63
2023-04-03T20:26:11.678Z,1.98
2023-04-03T20:28:41.951Z,1.60
2023-04-03T20:31:10.074Z,2.22
2023-04-03T20:33:37.683Z,1.95
2023-04-03T20:36:04.453Z,2.17
2023-04-03T20:38:31.323Z,1.80
2023-04-03T20:40:58.052Z,2.03
2023-04-03T20:43:25.479Z,2.30
2023-04-03T20:45:52.534Z,1.98
2023-04-03T20:48:19.380Z,2.00
2023-04-03T20:50:46.511Z,2.35
2023-04-03T20:53:15.125Z,2.13
2023-04-03T20:55:42.252Z,2.20
2023-04-03T20:58:08.961Z,2.00
2023-04-03T21:00:37.613Z,2.33
2023-04-03T21:03:04.681Z,2.47
2023-04-03T21:05:34.763Z,1.65
2023-04-03T21:08:40.169Z,2.10
2023-04-03T21:11:44.511Z,2.40
2023-04-03T21:14:48.962Z,2.13
2023-04-03T21:17:16.342Z,2.15
2023-04-03T21:19:46.675Z,2.30
2023-04-03T21:22:15.734Z,2.03
2023-04-03T21:24:44.224Z,3.45
2023-04-03T21:27:11.450Z,2.30
2023-04-03T21:29:38.836Z,2.35
2023-04-03T21:32:05.898Z,2.03
2023-04-03T21:34:32.558Z,2.10
2023-04-03T21:37:07.809Z,2.42
2023-04-03T21:39:34.750Z,2.20
2023-04-03T21:42:01.868Z,2.58
2023-04-03T21:44:28.777Z,2.65
2023-04-03T21:46:55.500Z,2.45
2023-04-03T21:49:23.866Z,2.38
2023-04-03T21:51:52.446Z,2.40
2023-04-03T21:54:20.068Z,2.33
2023-04-03T21:56:51.548Z,2.17
2023-04-03T21:59:18.590Z,2.25
2023-04-03T22:01:45.627Z,2.22
2023-04-03T22:04:12.813Z,2.22
2023-04-03T22:06:39.759Z,1.95
2023-04-03T22:09:06.679Z,2.10
2023-04-03T22:11:33.393Z,2.30
2023-04-03T22:14:00.286Z,2.35
2023-04-03T22:16:27.500Z,2.50
2023-04-03T22:18:54.962Z,2.25
2023-04-03T22:21:22.374Z,2.35
2023-04-03T22:23:49.347Z,2.35
2023-04-03T22:26:16.478Z,2.72
2023-04-03T22:28:45.536Z,2.17
2023-04-03T22:31:16.540Z,1.80
2023-04-03T22:33:44.604Z,2.20
2023-04-03T22:36:12.869Z,2.67
2023-04-03T22:38:43.482Z,2.20
2023-04-03T22:41:10.757Z,3.13
2023-04-03T22:43:38.332Z,2.30
2023-04-03T22:46:08.372Z,2.00
2023-04-03T22:48:35.399Z,2.30
2023-04-03T22:51:07.268Z,2.03
2023-04-03T22:53:34.506Z,1.73
2023-04-03T22:56:02.646Z,1.83
2023-04-03T22:58:29.878Z,1.75
2023-04-03T23:01:06.676Z,2.05
2023-04-03T23:03:34.554Z,1.63
2023-04-03T23:06:04.127Z,1.83
2023-04-03T23:08:32.539Z,2.25
2023-04-03T23:10:59.983Z,2.30
2023-04-03T23:13:27.478Z,1.70
2023-04-03T23:15:58.678Z,1.88
2023-04-03T23:18:26.815Z,1.70
2023-04-03T23:20:55.060Z,1.90
2023-04-03T23:23:23.775Z,2.10
2023-04-03T23:25:57.403Z,1.60
2023-04-03T23:28:24.170Z,2.35
2023-04-03T23:30:57.015Z,2.13
2023-04-03T23:33:23.694Z,1.77
2023-04-03T23:35:52.081Z,1.40
2023-04-03T23:38:18.857Z,1.92
2023-04-03T23:40:46.142Z,2.53
2023-04-03T23:43:12.973Z,1.77
2023-04-03T23:45:39.867Z,1.70
2023-04-03T23:48:06.717Z,2.00
2023-04-03T23:50:33.409Z,1.80
2023-04-03T23:53:00.934Z,1.77
2023-04-03T23:55:27.640Z,1.67
2023-04-03T23:57:54.279Z,1.63
